createdAt,value
2022-09-11T00:00:47.580Z,99.99
2022-09-11T00:01:47.588Z,99.99
2022-09-11T00:02:47.526Z,99.99
2022-09-11T00:03:47.455Z,99.99
2022-09-11T00:04:47.415Z,99.99
2022-09-11T00:05:47.377Z,99.99
2022-09-11T00:06:47.354Z,99.99
2022-09-11T00:07:47.305Z,99.99
2022-09-11T00:08:47.269Z,99.99
2022-09-11T00:09:47.223Z,99.99
2022-09-11T00:10:47.194Z,99.99
2022-09-11T00:11:47.145Z,99.99
2022-09-11T00:12:47.117Z,99.99
2022-09-11T00:13:47.066Z,99.99
2022-09-11T00:14:47.030Z,99.99
2022-09-11T00:15:47.033Z,99.99
2022-09-11T00:16:46.955Z,99.99
2022-09-11T00:17:46.926Z,99.99
2022-09-11T00:18:46.880Z,99.99
2022-09-11T00:19:46.838Z,99.99
2022-09-11T00:20:46.800Z,99.99
2022-09-11T00:21:46.762Z,99.99
2022-09-11T00:22:46.724Z,99.99
2022-09-11T00:23:46.695Z,99.99
2022-09-11T00:24:46.645Z,99.99
2022-09-11T00:25:46.617Z,99.99
2022-09-11T00:26:46.567Z,99.99
2022-09-11T00:27:46.530Z,99.99
2022-09-11T00:28:46.493Z,99.99
2022-09-11T00:29:46.464Z,99.99
2022-09-11T00:30:46.413Z,99.99
2022-09-11T00:31:46.382Z,99.99
2022-09-11T00:32:46.336Z,99.99
2022-09-11T00:33:46.295Z,99.99
2022-09-11T00:34:46.258Z,99.99
2022-09-11T00:35:46.229Z,99.99
2022-09-11T00:36:46.184Z,99.99
2022-09-11T00:37:46.140Z,99.99
2022-09-11T00:38:46.104Z,99.99
2022-09-11T00:39:46.115Z,99.99
2022-09-11T00:40:46.030Z,99.99
2022-09-11T00:41:46.001Z,99.99
2022-09-11T00:42:45.949Z,99.99
2022-09-11T00:43:45.927Z,99.99
2022-09-11T00:44:45.872Z,99.99
2022-09-11T00:45:45.842Z,99.99
2022-09-11T00:46:45.795Z,99.99
2022-09-11T00:47:45.770Z,99.99
2022-09-11T00:48:45.723Z,99.99
2022-09-11T00:49:45.681Z,99.99
2022-09-11T00:50:45.648Z,99.99
2022-09-11T00:51:45.627Z,99.99
2022-09-11T00:52:47.374Z,99.99
2022-09-11T00:53:45.536Z,99.99
2022-09-11T00:54:45.487Z,99.99
2022-09-11T00:55:45.445Z,99.99
2022-09-11T00:56:45.409Z,99.99
2022-09-11T00:57:45.370Z,99.99
2022-09-11T00:58:45.333Z,99.99
2022-09-11T00:59:45.306Z,99.99
2022-09-11T01:00:45.342Z,99.99
2022-09-11T01:01:45.283Z,99.99
2022-09-11T01:02:45.184Z,99.99
2022-09-11T01:03:45.140Z,99.99
2022-09-11T01:04:45.103Z,99.99
2022-09-11T01:05:45.073Z,99.99
2022-09-11T01:06:45.031Z,99.99
2022-09-11T01:07:44.986Z,99.99
2022-09-11T01:08:44.950Z,99.99
2022-09-11T01:09:44.947Z,99.99
2022-09-11T01:10:44.873Z,99.99
2022-09-11T01:11:44.849Z,99.99
2022-09-11T01:12:44.797Z,99.99
2022-09-11T01:13:44.771Z,99.99
2022-09-11T01:14:44.719Z,99.99
2022-09-11T01:15:44.683Z,99.99
2022-09-11T01:16:44.655Z,99.99
2022-09-11T01:17:44.619Z,99.99
2022-09-11T01:18:44.569Z,99.99
2022-09-11T01:19:44.528Z,99.99
2022-09-11T01:20:44.494Z,99.99
2022-09-11T01:21:44.454Z,99.99
2022-09-11T01:22:44.426Z,99.99
2022-09-11T01:23:44.400Z,99.99
2022-09-11T01:24:44.356Z,99.99
2022-09-11T01:25:44.299Z,99.99
2022-09-11T01:26:44.263Z,99.99
2022-09-11T01:27:44.230Z,99.99
2022-09-11T01:28:44.214Z,99.99
2022-09-11T01:29:44.147Z,99.99
2022-09-11T01:30:44.110Z,99.99
2022-09-11T01:31:44.110Z,99.99
2022-09-11T01:32:44.040Z,99.99
2022-09-11T01:33:44.035Z,99.99
2022-09-11T01:34:43.956Z,99.99
2022-09-11T01:35:43.920Z,99.99
2022-09-11T01:36:43.882Z,99.99
2022-09-11T01:37:43.843Z,99.99
2022-09-11T01:38:43.807Z,99.99
2022-09-11T01:39:43.808Z,99.99
2022-09-11T01:40:43.730Z,99.99
2022-09-11T01:41:43.691Z,99.99
2022-09-11T01:42:43.652Z,99.99
2022-09-11T01:43:43.741Z,99.99
2022-09-11T01:44:43.578Z,99.99
2022-09-11T01:45:43.557Z,99.99
2022-09-11T01:46:43.502Z,99.99
2022-09-11T01:47:43.464Z,99.99
2022-09-11T01:48:43.424Z,99.99
2022-09-11T01:49:43.401Z,99.99
2022-09-11T01:50:43.348Z,99.99
2022-09-11T01:51:52.537Z,99.99
2022-09-11T01:52:43.275Z,99.99
2022-09-11T01:53:45.886Z,99.99
2022-09-11T01:54:43.205Z,99.99
2022-09-11T01:55:43.165Z,99.99
2022-09-11T01:56:43.122Z,99.99
2022-09-11T01:57:43.086Z,99.99
2022-09-11T01:58:43.043Z,99.99
2022-09-11T01:59:43.020Z,99.99
2022-09-11T02:00:43.009Z,99.99
2022-09-11T02:01:42.961Z,99.99
2022-09-11T02:02:42.893Z,99.99
2022-09-11T02:03:42.994Z,99.99
2022-09-11T02:04:42.826Z,99.99
2022-09-11T02:05:42.781Z,99.99
2022-09-11T02:06:42.739Z,99.99
2022-09-11T02:07:42.705Z,99.99
2022-09-11T02:08:42.664Z,99.99
2022-09-11T02:09:42.627Z,99.99
2022-09-11T02:10:42.600Z,99.99
2022-09-11T02:11:42.551Z,99.99
2022-09-11T02:12:42.514Z,99.99
2022-09-11T02:13:42.565Z,99.99
2022-09-11T02:14:42.438Z,99.99
2022-09-11T02:15:42.412Z,99.99
2022-09-11T02:16:42.359Z,99.99
2022-09-11T02:17:42.325Z,99.99
2022-09-11T02:18:42.283Z,99.99
2022-09-11T02:19:42.246Z,99.99
2022-09-11T02:20:42.210Z,99.99
2022-09-11T02:21:42.185Z,99.99
2022-09-11T02:22:42.132Z,99.99
2022-09-11T02:23:42.140Z,99.99
2022-09-11T02:24:42.054Z,99.99
2022-09-11T02:25:42.026Z,99.99
2022-09-11T02:26:41.980Z,99.99
2022-09-11T02:27:41.955Z,99.99
2022-09-11T02:28:41.907Z,99.99
2022-09-11T02:29:41.866Z,99.99
2022-09-11T02:30:41.829Z,99.99
2022-09-11T02:31:41.811Z,99.99
2022-09-11T02:32:41.752Z,99.99
2022-09-11T02:33:41.822Z,99.99
2022-09-11T02:34:41.677Z,99.99
2022-09-11T02:35:41.640Z,99.99
2022-09-11T02:36:41.601Z,99.99
2022-09-11T02:37:41.572Z,99.99
2022-09-11T02:38:41.524Z,99.99
2022-09-11T02:39:41.548Z,99.99
2022-09-11T02:40:41.453Z,99.99
2022-09-11T02:41:41.415Z,99.99
2022-09-11T02:42:41.373Z,99.99
2022-09-11T02:43:41.351Z,99.99
2022-09-11T02:44:41.302Z,99.99
2022-09-11T02:45:41.325Z,99.99
2022-09-11T02:46:41.222Z,99.99
2022-09-11T02:47:41.185Z,99.99
2022-09-11T02:48:41.156Z,99.99
2022-09-11T02:49:41.108Z,99.99
2022-09-11T02:50:41.071Z,99.99
2022-09-11T02:51:41.032Z,99.99
2022-09-11T02:52:40.994Z,99.99
2022-09-11T02:53:40.991Z,99.99
2022-09-11T02:54:40.917Z,99.99
2022-09-11T02:55:40.882Z,99.99
2022-09-11T02:56:40.841Z,99.99
2022-09-11T02:57:40.805Z,99.99
2022-09-11T02:58:40.766Z,99.99
2022-09-11T02:59:40.741Z,99.99
2022-09-11T03:00:40.742Z,99.99
2022-09-11T03:01:40.680Z,99.99
2022-09-11T03:02:40.615Z,99.99
2022-09-11T03:03:40.618Z,99.99
2022-09-11T03:04:40.549Z,99.99
2022-09-11T03:05:40.501Z,99.99
2022-09-11T03:06:40.463Z,99.99
2022-09-11T03:07:40.426Z,99.99
2022-09-11T03:08:40.386Z,99.99
2022-09-11T03:09:40.348Z,99.99
2022-09-11T03:10:40.324Z,99.99
2022-09-11T03:11:40.281Z,99.99
2022-09-11T03:12:40.236Z,99.99
2022-09-11T03:13:40.254Z,99.99
2022-09-11T03:14:40.163Z,99.99
2022-09-11T03:15:40.122Z,99.99
2022-09-11T03:16:40.116Z,99.99
2022-09-11T03:17:40.056Z,99.99
2022-09-11T03:18:40.008Z,99.99
2022-09-11T03:19:39.970Z,99.99
2022-09-11T03:20:39.932Z,99.99
2022-09-11T03:21:39.899Z,99.99
2022-09-11T03:22:39.856Z,99.99
2022-09-11T03:23:39.889Z,99.99
2022-09-11T03:24:39.779Z,99.99
2022-09-11T03:25:39.742Z,99.99
2022-09-11T03:26:39.703Z,99.99
2022-09-11T03:27:39.668Z,99.99
2022-09-11T03:28:39.641Z,99.99
2022-09-11T03:29:39.591Z,99.99
2022-09-11T03:30:39.553Z,99.99
2022-09-11T03:31:39.681Z,99.99
2022-09-11T03:32:39.479Z,99.99
2022-09-11T03:33:39.484Z,99.99
2022-09-11T03:34:39.409Z,99.99
2022-09-11T03:35:39.365Z,99.99
2022-09-11T03:36:39.325Z,99.99
2022-09-11T03:37:39.286Z,99.99
2022-09-11T03:38:39.248Z,99.99
2022-09-11T03:39:39.237Z,99.99
2022-09-11T03:40:39.185Z,99.99
2022-09-11T03:41:39.137Z,99.99
2022-09-11T03:42:39.096Z,99.99
2022-09-11T03:43:39.175Z,99.99
2022-09-11T03:44:39.021Z,99.99
2022-09-11T03:45:39.020Z,99.99
2022-09-11T03:46:38.961Z,99.99
2022-09-11T03:47:38.908Z,99.99
2022-09-11T03:48:38.872Z,99.99
2022-09-11T03:49:38.828Z,99.99
2022-09-11T03:50:38.794Z,99.99
2022-09-11T03:51:38.760Z,99.99
2022-09-11T03:52:38.731Z,99.99
2022-09-11T03:53:38.722Z,99.99
2022-09-11T03:54:38.641Z,99.99
2022-09-11T03:55:38.608Z,99.99
2022-09-11T03:56:38.565Z,99.99
2022-09-11T03:57:38.526Z,99.99
2022-09-11T03:58:38.502Z,99.99
2022-09-11T03:59:38.454Z,99.99
2022-09-11T04:00:38.453Z,99.99
2022-09-11T04:01:38.418Z,99.99
2022-09-11T04:02:38.335Z,99.99
2022-09-11T04:03:38.363Z,99.99
2022-09-11T04:04:38.271Z,99.99
2022-09-11T04:05:38.223Z,99.99
2022-09-11T04:06:38.186Z,99.99
2022-09-11T04:07:38.148Z,99.99
2022-09-11T04:08:38.110Z,99.99
2022-09-11T04:09:38.073Z,99.99
2022-09-11T04:10:38.047Z,99.99
2022-09-11T04:11:38.008Z,99.99
2022-09-11T04:12:37.958Z,99.99
2022-09-11T04:13:37.920Z,99.99
2022-09-11T04:14:37.881Z,99.99
2022-09-11T04:15:37.848Z,99.99
2022-09-11T04:16:37.833Z,99.99
2022-09-11T04:17:37.783Z,99.99
2022-09-11T04:18:37.728Z,99.99
2022-09-11T04:19:37.693Z,99.99
2022-09-11T04:20:37.652Z,99.99
2022-09-11T04:21:37.613Z,99.99
2022-09-11T04:22:37.577Z,99.99
2022-09-11T04:23:37.553Z,99.99
2022-09-11T04:24:37.502Z,99.99
2022-09-11T04:25:37.462Z,99.99
2022-09-11T04:26:37.427Z,99.99
2022-09-11T04:27:37.387Z,99.99
2022-09-11T04:28:37.351Z,99.99
2022-09-11T04:29:37.323Z,99.99
2022-09-11T04:30:37.272Z,99.99
2022-09-11T04:31:37.243Z,99.99
2022-09-11T04:32:37.198Z,99.99
2022-09-11T04:33:37.158Z,99.99
2022-09-11T04:34:37.127Z,99.99
2022-09-11T04:35:37.101Z,99.99
2022-09-11T04:36:37.043Z,99.99
2022-09-11T04:37:37.007Z,99.99
2022-09-11T04:38:36.968Z,99.99
2022-09-11T04:39:36.968Z,99.99
2022-09-11T04:40:36.893Z,99.99
2022-09-11T04:41:36.865Z,99.99
2022-09-11T04:42:36.821Z,99.99
2022-09-11T04:43:36.783Z,99.99
2022-09-11T04:44:36.747Z,99.99
2022-09-11T04:45:36.774Z,99.99
2022-09-11T04:46:36.664Z,99.99
2022-09-11T04:47:36.640Z,99.99
2022-09-11T04:48:36.588Z,99.99
2022-09-11T04:49:36.550Z,99.99
2022-09-11T04:50:36.511Z,99.99
2022-09-11T04:51:36.488Z,99.99
2022-09-11T04:52:36.440Z,99.99
2022-09-11T04:53:36.397Z,99.99
2022-09-11T04:54:36.360Z,99.99
2022-09-11T04:55:36.326Z,99.99
2022-09-11T04:56:36.285Z,99.99
2022-09-11T04:57:36.260Z,99.99
2022-09-11T04:58:36.207Z,99.99
2022-09-11T04:59:36.193Z,99.99
2022-09-11T05:00:36.136Z,99.99
2022-09-11T05:01:36.095Z,99.99
2022-09-11T05:02:36.056Z,99.99
2022-09-11T05:03:36.018Z,99.99
2022-09-11T05:04:35.981Z,99.99
2022-09-11T05:05:35.956Z,99.99
2022-09-11T05:06:35.909Z,99.99
2022-09-11T05:07:35.866Z,99.99
2022-09-11T05:08:35.830Z,99.99
2022-09-11T05:09:35.789Z,99.99
2022-09-11T05:10:35.753Z,99.99
2022-09-11T05:11:35.726Z,99.99
2022-09-11T05:12:35.676Z,99.99
2022-09-11T05:13:36.594Z,99.99
2022-09-11T05:14:35.600Z,99.99
2022-09-11T05:15:35.565Z,99.99
2022-09-11T05:16:35.555Z,99.99
2022-09-11T05:17:35.496Z,99.99
2022-09-11T05:18:35.451Z,99.99
2022-09-11T05:19:35.411Z,99.99
2022-09-11T05:20:35.373Z,99.99
2022-09-11T05:21:35.336Z,99.99
2022-09-11T05:22:35.305Z,99.99
2022-09-11T05:23:35.262Z,99.99
2022-09-11T05:24:35.222Z,99.99
2022-09-11T05:25:35.181Z,99.99
2022-09-11T05:26:35.146Z,99.99
2022-09-11T05:27:35.106Z,99.99
2022-09-11T05:28:35.081Z,99.99
2022-09-11T05:29:35.030Z,99.99
2022-09-11T05:30:34.992Z,99.99
2022-09-11T05:31:34.997Z,99.99
2022-09-11T05:32:34.917Z,99.99
2022-09-11T05:33:34.882Z,99.99
2022-09-11T05:34:34.853Z,99.99
2022-09-11T05:35:34.803Z,99.99
2022-09-11T05:36:34.762Z,99.99
2022-09-11T05:37:34.760Z,99.99
2022-09-11T05:38:34.692Z,99.99
2022-09-11T05:39:34.731Z,99.99
2022-09-11T05:40:34.614Z,99.99
2022-09-11T05:41:34.574Z,99.99
2022-09-11T05:42:34.537Z,99.99
2022-09-11T05:43:34.499Z,99.99
2022-09-11T05:44:34.465Z,99.99
2022-09-11T05:45:34.459Z,99.99
2022-09-11T05:46:34.386Z,99.99
2022-09-11T05:47:34.346Z,99.99
2022-09-11T05:48:34.310Z,99.99
2022-09-11T05:49:34.273Z,99.99
2022-09-11T05:50:34.264Z,99.99
2022-09-11T05:51:34.204Z,99.99
2022-09-11T05:52:34.157Z,99.99
2022-09-11T05:53:34.241Z,99.99
2022-09-11T05:54:34.083Z,99.99
2022-09-11T05:55:34.042Z,99.99
2022-09-11T05:56:34.017Z,99.99
2022-09-11T05:57:33.967Z,99.99
2022-09-11T05:58:33.931Z,99.99
2022-09-11T05:59:33.904Z,99.99
2022-09-11T06:00:33.856Z,99.99
2022-09-11T06:01:33.878Z,99.99
2022-09-11T06:02:33.781Z,99.99
2022-09-11T06:03:33.847Z,99.99
2022-09-11T06:04:33.715Z,99.99
2022-09-11T06:05:33.673Z,99.99
2022-09-11T06:06:33.627Z,99.99
2022-09-11T06:07:33.589Z,99.99
2022-09-11T06:08:33.556Z,99.99
2022-09-11T06:09:33.518Z,99.99
2022-09-11T06:10:33.488Z,99.99
2022-09-11T06:11:33.437Z,99.99
2022-09-11T06:12:33.402Z,99.99
2022-09-11T06:13:33.402Z,99.99
2022-09-11T06:14:33.326Z,99.99
2022-09-11T06:15:46.194Z,99.99
2022-09-11T06:16:33.298Z,99.99
2022-09-11T06:17:33.214Z,99.99
2022-09-11T06:18:33.173Z,99.99
2022-09-11T06:19:33.136Z,99.99
2022-09-11T06:20:33.101Z,99.99
2022-09-11T06:21:33.059Z,99.99
2022-09-11T06:22:33.036Z,99.99
2022-09-11T06:23:32.989Z,99.99
2022-09-11T06:24:32.947Z,99.99
2022-09-11T06:25:32.907Z,99.99
2022-09-11T06:26:32.873Z,99.99
2022-09-11T06:27:32.833Z,99.99
2022-09-11T06:28:32.806Z,99.99
2022-09-11T06:29:32.757Z,99.99
2022-09-11T06:30:32.733Z,99.99
2022-09-11T06:31:32.680Z,99.99
2022-09-11T06:32:32.660Z,99.99
2022-09-11T06:33:32.605Z,99.99
2022-09-11T06:34:32.569Z,99.99
2022-09-11T06:35:32.536Z,99.99
2022-09-11T06:36:32.495Z,99.99
2022-09-11T06:37:32.456Z,99.99
2022-09-11T06:38:32.433Z,99.99
2022-09-11T06:39:32.382Z,99.99
2022-09-11T06:40:32.342Z,99.99
2022-09-11T06:41:32.302Z,99.99
2022-09-11T06:42:32.267Z,99.99
2022-09-11T06:43:32.228Z,99.99
2022-09-11T06:44:32.202Z,99.99
2022-09-11T06:45:32.187Z,99.99
2022-09-11T06:46:32.118Z,99.99
2022-09-11T06:47:32.082Z,99.99
2022-09-11T06:48:32.041Z,99.99
2022-09-11T06:49:32.013Z,99.99
2022-09-11T06:50:35.155Z,99.99
2022-09-11T06:51:31.925Z,99.99
2022-09-11T06:52:31.888Z,99.99
2022-09-11T06:53:31.850Z,99.99
2022-09-11T06:54:31.813Z,99.99
2022-09-11T06:55:31.789Z,99.99
2022-09-11T06:56:31.739Z,99.99
2022-09-11T06:57:31.699Z,99.99
2022-09-11T06:58:31.665Z,99.99
2022-09-11T06:59:31.630Z,99.99
2022-09-11T07:00:31.586Z,99.99
2022-09-11T07:01:31.717Z,99.99
2022-09-11T07:02:31.512Z,99.99
2022-09-11T07:03:31.473Z,99.99
2022-09-11T07:04:31.435Z,99.99
2022-09-11T07:05:31.399Z,99.99
2022-09-11T07:06:31.376Z,99.99
2022-09-11T07:07:31.331Z,99.99
2022-09-11T07:08:31.289Z,99.99
2022-09-11T07:09:31.428Z,99.99
2022-09-11T07:10:31.208Z,99.99
2022-09-11T07:11:31.174Z,99.99
2022-09-11T07:12:31.134Z,99.99
2022-09-11T07:13:34.273Z,99.99
2022-09-11T07:14:31.060Z,99.99
2022-09-11T07:15:31.034Z,99.99
2022-09-11T07:16:31.045Z,99.99
2022-09-11T07:17:30.947Z,99.99
2022-09-11T07:18:30.908Z,99.99
2022-09-11T07:19:30.870Z,99.99
2022-09-11T07:20:30.836Z,99.99
2022-09-11T07:21:30.807Z,99.99
2022-09-11T07:22:30.762Z,99.99
2022-09-11T07:23:30.759Z,99.99
2022-09-11T07:24:30.685Z,99.99
2022-09-11T07:25:30.645Z,99.99
2022-09-11T07:26:30.611Z,99.99
2022-09-11T07:27:30.583Z,99.99
2022-09-11T07:28:30.535Z,99.99
2022-09-11T07:29:30.493Z,99.99
2022-09-11T07:30:30.482Z,99.99
2022-09-11T07:31:30.419Z,99.99
2022-09-11T07:32:30.383Z,99.99
2022-09-11T07:33:30.356Z,99.99
2022-09-11T07:34:30.319Z,99.99
2022-09-11T07:35:30.268Z,99.99
2022-09-11T07:36:30.234Z,99.99
2022-09-11T07:37:30.192Z,99.99
2022-09-11T07:38:30.163Z,99.99
2022-09-11T07:39:30.131Z,99.99
2022-09-11T07:40:30.083Z,99.99
2022-09-11T07:41:30.044Z,99.99
2022-09-11T07:42:30.008Z,99.99
2022-09-11T07:43:29.969Z,99.99
2022-09-11T07:44:29.938Z,99.99
2022-09-11T07:45:29.950Z,99.99
2022-09-11T07:46:29.860Z,99.99
2022-09-11T07:47:29.830Z,99.99
2022-09-11T07:48:29.784Z,99.99
2022-09-11T07:49:29.742Z,99.99
2022-09-11T07:50:29.706Z,99.99
2022-09-11T07:51:29.668Z,99.99
2022-09-11T07:52:36.726Z,99.99
2022-09-11T07:53:29.593Z,99.99
2022-09-11T07:54:29.554Z,99.99
2022-09-11T07:55:29.516Z,99.99
2022-09-11T07:56:29.481Z,99.99
2022-09-11T07:57:29.440Z,99.99
2022-09-11T07:58:29.418Z,99.99
2022-09-11T07:59:29.368Z,99.99
2022-09-11T08:00:30.551Z,99.99
2022-09-11T08:01:29.314Z,99.99
2022-09-11T08:02:29.281Z,99.99
2022-09-11T08:03:29.215Z,99.99
2022-09-11T08:04:29.356Z,99.99
2022-09-11T08:05:29.139Z,99.99
2022-09-11T08:06:29.103Z,99.99
2022-09-11T08:07:29.067Z,99.99
2022-09-11T08:08:29.061Z,99.99
2022-09-11T08:09:28.990Z,99.99
2022-09-11T08:10:28.985Z,99.99
2022-09-11T08:11:28.916Z,99.99
2022-09-11T08:12:28.880Z,99.99
2022-09-11T08:13:28.839Z,99.99
2022-09-11T08:14:28.808Z,99.99
2022-09-11T08:15:28.780Z,99.99
2022-09-11T08:16:28.738Z,99.99
2022-09-11T08:17:28.690Z,99.99
2022-09-11T08:18:28.659Z,99.99
2022-09-11T08:19:28.618Z,99.99
2022-09-11T08:20:28.581Z,99.99
2022-09-11T08:21:28.554Z,99.99
2022-09-11T08:22:28.505Z,99.99
2022-09-11T08:23:28.467Z,99.99
2022-09-11T08:24:28.431Z,99.99
2022-09-11T08:25:28.394Z,99.99
2022-09-11T08:26:28.354Z,99.99
2022-09-11T08:27:28.330Z,99.99
2022-09-11T08:28:28.286Z,99.99
2022-09-11T08:29:28.242Z,99.99
2022-09-11T08:30:28.210Z,99.99
2022-09-11T08:31:28.209Z,99.99
2022-09-11T08:32:28.144Z,99.99
2022-09-11T08:33:28.096Z,99.99
2022-09-11T08:34:28.058Z,99.99
2022-09-11T08:35:28.018Z,99.99
2022-09-11T08:36:27.983Z,99.99
2022-09-11T08:37:27.942Z,99.99
2022-09-11T08:38:27.924Z,99.99
2022-09-11T08:39:27.869Z,99.99
2022-09-11T08:40:27.832Z,99.99
2022-09-11T08:41:27.795Z,99.99
2022-09-11T08:42:27.758Z,99.99
2022-09-11T08:43:27.721Z,99.99
2022-09-11T08:44:27.698Z,99.99
2022-09-11T08:45:27.673Z,99.99
2022-09-11T08:46:27.609Z,99.99
2022-09-11T08:47:27.573Z,99.99
2022-09-11T08:48:27.535Z,99.99
2022-09-11T08:49:27.495Z,99.99
2022-09-11T08:50:27.473Z,99.99
2022-09-11T08:51:27.422Z,99.99
2022-09-11T08:52:27.396Z,99.99
2022-09-11T08:53:27.346Z,99.99
2022-09-11T08:54:27.311Z,99.99
2022-09-11T08:55:27.273Z,99.99
2022-09-11T08:56:27.250Z,99.99
2022-09-11T08:57:27.199Z,99.99
2022-09-11T08:58:27.162Z,99.99
2022-09-11T08:59:27.131Z,99.99
2022-09-11T09:00:27.089Z,99.99
2022-09-11T09:01:27.079Z,99.99
2022-09-11T09:02:27.052Z,99.99
2022-09-11T09:03:26.977Z,99.99
2022-09-11T09:04:26.939Z,99.99
2022-09-11T09:05:26.900Z,99.99
2022-09-11T09:06:26.865Z,99.99
2022-09-11T09:07:26.830Z,99.99
2022-09-11T09:08:26.801Z,99.99
2022-09-11T09:09:26.755Z,99.99
2022-09-11T09:10:26.720Z,99.99
2022-09-11T09:11:26.681Z,99.99
2022-09-11T09:12:26.642Z,99.99
2022-09-11T09:13:26.606Z,99.99
2022-09-11T09:14:26.751Z,99.99
2022-09-11T09:15:29.515Z,99.99
2022-09-11T09:16:26.500Z,99.99
2022-09-11T09:17:26.456Z,99.99
2022-09-11T09:18:26.421Z,99.99
2022-09-11T09:19:26.383Z,99.99
2022-09-11T09:20:26.364Z,99.99
2022-09-11T09:21:26.307Z,99.99
2022-09-11T09:22:26.279Z,99.99
2022-09-11T09:23:26.235Z,99.99
2022-09-11T09:24:26.198Z,99.99
2022-09-11T09:25:26.175Z,99.99
2022-09-11T09:26:26.124Z,99.99
2022-09-11T09:27:26.087Z,99.99
2022-09-11T09:28:26.054Z,99.99
2022-09-11T09:29:26.010Z,99.99
2022-09-11T09:30:25.978Z,99.99
2022-09-11T09:31:26.011Z,99.99
2022-09-11T09:32:25.907Z,99.99
2022-09-11T09:33:25.867Z,99.99
2022-09-11T09:34:25.829Z,99.99
2022-09-11T09:35:25.794Z,99.99
2022-09-11T09:36:25.760Z,99.99
2022-09-11T09:37:25.735Z,99.99
2022-09-11T09:38:27.121Z,99.99
2022-09-11T09:39:25.648Z,99.99
2022-09-11T09:40:25.618Z,99.99
2022-09-11T09:41:25.578Z,99.99
2022-09-11T09:42:25.545Z,99.99
2022-09-11T09:43:25.520Z,99.99
2022-09-11T09:44:25.486Z,99.99
2022-09-11T09:45:25.435Z,99.99
2022-09-11T09:46:25.404Z,99.99
2022-09-11T09:47:25.366Z,99.99
2022-09-11T09:48:25.332Z,99.99
2022-09-11T09:49:25.309Z,99.99
2022-09-11T09:50:25.262Z,99.99
2022-09-11T09:51:25.228Z,99.99
2022-09-11T09:52:25.199Z,99.99
2022-09-11T09:53:25.156Z,99.99
2022-09-11T09:54:25.136Z,99.99
2022-09-11T09:55:25.090Z,99.99
2022-09-11T09:56:25.054Z,99.52
2022-09-11T09:57:25.017Z,98.18
2022-09-11T09:58:24.985Z,95.27
2022-09-11T09:59:24.950Z,92.97
2022-09-11T10:00:24.928Z,95.47
2022-09-11T10:01:24.941Z,96.13
2022-09-11T10:02:24.863Z,96.78
2022-09-11T10:03:24.815Z,94.38
2022-09-11T10:04:24.780Z,92.72
2022-09-11T10:05:24.747Z,94.37
2022-09-11T10:06:24.712Z,93.77
2022-09-11T10:07:24.689Z,94.01
2022-09-11T10:08:24.646Z,93.62
2022-09-11T10:09:24.611Z,94.21
2022-09-11T10:10:24.576Z,95.42
2022-09-11T10:11:24.546Z,95.66
2022-09-11T10:12:24.527Z,94.86
2022-09-11T10:13:24.476Z,94.60
2022-09-11T10:14:49.944Z,94.71
2022-09-11T10:15:24.413Z,95.80
2022-09-11T10:16:24.376Z,96.30
2022-09-11T10:17:24.355Z,95.75
2022-09-11T10:18:24.310Z,98.10
2022-09-11T10:19:24.281Z,97.00
2022-09-11T10:20:24.245Z,98.30
2022-09-11T10:21:24.236Z,99.01
2022-09-11T10:22:24.188Z,97.45
2022-09-11T10:23:24.153Z,98.56
2022-09-11T10:24:24.107Z,98.36
2022-09-11T10:25:24.073Z,98.66
2022-09-11T10:26:24.038Z,96.25
2022-09-11T10:27:27.225Z,95.75
2022-09-11T10:28:23.982Z,96.35
2022-09-11T10:29:23.938Z,96.50
2022-09-11T10:30:23.899Z,95.59
2022-09-11T10:31:23.911Z,95.95
2022-09-11T10:32:23.832Z,95.64
2022-09-11T10:33:23.797Z,94.94
2022-09-11T10:34:23.778Z,94.79
2022-09-11T10:35:23.730Z,94.89
2022-09-11T10:36:23.693Z,93.88
2022-09-11T10:37:23.661Z,94.89
2022-09-11T10:38:23.630Z,93.13
2022-09-11T10:39:23.590Z,94.18
2022-09-11T10:40:23.566Z,94.98
2022-09-11T10:41:23.535Z,95.60
2022-09-11T10:42:23.483Z,95.90
2022-09-11T10:43:23.451Z,94.39
2022-09-11T10:44:23.416Z,93.95
2022-09-11T10:45:23.379Z,93.74
2022-09-11T10:46:23.520Z,95.31
2022-09-11T10:47:23.312Z,90.29
2022-09-11T10:48:23.277Z,91.30
2022-09-11T10:49:23.244Z,91.60
2022-09-11T10:50:23.207Z,90.89
2022-09-11T10:51:23.174Z,91.30
2022-09-11T10:52:23.152Z,90.59
2022-09-11T10:53:23.121Z,89.33
2022-09-11T10:54:23.071Z,90.68
2022-09-11T10:55:23.040Z,91.28
2022-09-11T10:56:22.999Z,92.38
2022-09-11T10:57:22.981Z,92.65
2022-09-11T10:58:22.933Z,93.44
2022-09-11T10:59:22.901Z,92.60
2022-09-11T11:00:22.863Z,93.00
2022-09-11T11:01:22.873Z,90.19
2022-09-11T11:02:22.874Z,90.29
2022-09-11T11:03:22.772Z,90.89
2022-09-11T11:04:22.725Z,90.59
2022-09-11T11:05:22.689Z,91.19
2022-09-11T11:06:22.653Z,93.05
2022-09-11T11:07:22.620Z,91.25
2022-09-11T11:08:22.585Z,90.91
2022-09-11T11:09:22.564Z,89.16
2022-09-11T11:10:22.516Z,89.98
2022-09-11T11:11:22.483Z,87.57
2022-09-11T11:12:22.449Z,87.57
2022-09-11T11:13:22.413Z,88.33
2022-09-11T11:14:22.379Z,90.03
2022-09-11T11:15:24.151Z,89.29
2022-09-11T11:16:22.309Z,85.53
2022-09-11T11:17:22.278Z,85.53
2022-09-11T11:18:22.243Z,86.03
2022-09-11T11:19:22.210Z,85.27
2022-09-11T11:20:22.189Z,87.18
2022-09-11T11:21:22.141Z,87.13
2022-09-11T11:22:22.107Z,87.23
2022-09-11T11:23:22.076Z,86.49
2022-09-11T11:24:22.041Z,85.55
2022-09-11T11:25:22.007Z,85.15
2022-09-11T11:26:21.991Z,83.15
2022-09-11T11:27:21.944Z,85.81
2022-09-11T11:28:21.908Z,84.41
2022-09-11T11:29:21.876Z,86.07
2022-09-11T11:30:21.869Z,83.01
2022-09-11T11:31:21.865Z,82.15
2022-09-11T11:32:21.777Z,85.05
2022-09-11T11:33:21.745Z,83.99
2022-09-11T11:34:21.711Z,86.39
2022-09-11T11:35:21.678Z,85.25
2022-09-11T11:36:21.647Z,85.01
2022-09-11T11:37:21.626Z,82.61
2022-09-11T11:38:21.581Z,81.31
2022-09-11T11:39:21.551Z,83.21
2022-09-11T11:40:21.517Z,84.47
2022-09-11T11:41:21.485Z,84.33
2022-09-11T11:42:21.454Z,82.93
2022-09-11T11:43:21.430Z,82.14
2022-09-11T11:44:21.390Z,81.98
2022-09-11T11:45:21.357Z,80.18
2022-09-11T11:46:21.324Z,82.67
2022-09-11T11:47:21.294Z,82.29
2022-09-11T11:48:21.270Z,80.36
2022-09-11T11:49:21.234Z,84.21
2022-09-11T11:50:21.203Z,79.69
2022-09-11T11:51:21.169Z,80.74
2022-09-11T11:52:21.136Z,76.79
2022-09-11T11:53:21.122Z,78.19
2022-09-11T11:54:21.073Z,79.28
2022-09-11T11:55:21.049Z,77.95
2022-09-11T11:56:21.014Z,77.95
2022-09-11T11:57:20.983Z,75.67
2022-09-11T11:58:20.967Z,77.06
2022-09-11T11:59:20.924Z,77.62
2022-09-11T12:00:20.898Z,77.09
2022-09-11T12:01:20.863Z,76.37
2022-09-11T12:02:20.835Z,79.94
2022-09-11T12:03:20.892Z,80.14
2022-09-11T12:04:20.773Z,78.64
2022-09-11T12:05:20.743Z,80.08
2022-09-11T12:06:20.710Z,78.94
2022-09-11T12:07:20.684Z,79.72
2022-09-11T12:08:20.664Z,80.11
2022-09-11T12:09:20.623Z,79.52
2022-09-11T12:10:20.590Z,80.32
2022-09-11T12:11:20.558Z,80.77
2022-09-11T12:12:20.529Z,81.40
2022-09-11T12:13:20.495Z,77.97
2022-09-11T12:14:20.475Z,79.46
2022-09-11T12:15:20.443Z,79.52
2022-09-11T12:16:20.467Z,78.69
2022-09-11T12:17:20.371Z,78.09
2022-09-11T12:18:20.342Z,76.20
2022-09-11T12:19:20.310Z,77.39
2022-09-11T12:20:20.281Z,78.25
2022-09-11T12:21:20.260Z,77.06
2022-09-11T12:22:20.217Z,75.57
2022-09-11T12:23:20.189Z,74.41
2022-09-11T12:24:20.156Z,74.30
2022-09-11T12:25:20.142Z,75.57
2022-09-11T12:26:20.100Z,76.47
2022-09-11T12:27:20.066Z,76.77
2022-09-11T12:28:20.037Z,77.27
2022-09-11T12:29:20.011Z,77.11
2022-09-11T12:30:19.974Z,79.16
2022-09-11T12:31:19.991Z,80.96
2022-09-11T12:32:19.915Z,79.86
2022-09-11T12:33:19.886Z,80.22
2022-09-11T12:34:19.855Z,78.53
2022-09-11T12:35:19.827Z,74.74
2022-09-11T12:36:19.799Z,75.91
2022-09-11T12:37:19.778Z,76.84
2022-09-11T12:38:19.734Z,77.98
2022-09-11T12:39:19.708Z,78.68
2022-09-11T12:40:19.676Z,78.58
2022-09-11T12:41:19.642Z,78.38
2022-09-11T12:42:19.627Z,79.54
2022-09-11T12:43:19.586Z,77.84
2022-09-11T12:44:19.559Z,77.84
2022-09-11T12:45:19.529Z,79.70
2022-09-11T12:46:19.491Z,78.64
2022-09-11T12:47:19.464Z,79.80
2022-09-11T12:48:19.451Z,79.86
2022-09-11T12:49:22.530Z,78.23
2022-09-11T12:50:19.374Z,76.43
2022-09-11T12:51:19.361Z,76.79
2022-09-11T12:52:19.315Z,75.04